sensor_id;sensor_type;location;lat;lon;timestamp;P1;durP1;ratioP1;P2;durP2;ratioP2
2756;SDS011;1386;50.862;6.494;2023-03-11T00:00:32;3.85;;;3.42;;
2756;SDS011;1386;50.862;6.494;2023-03-11T00:03:01;4.97;;;4.13;;
2756;SDS011;1386;50.862;6.494;2023-03-11T00:05:30;6.45;;;2.67;;
2756;SDS011;1386;50.862;6.494;2023-03-11T00:07:59;4.95;;;3.40;;
2756;SDS011;1386;50.862;6.494;2023-03-11T00:10:27;5.75;;;3.38;;
2756;SDS011;1386;50.862;6.494;2023-03-11T00:12:57;4.55;;;3.17;;
2756;SDS011;1386;50.862;6.494;2023-03-11T00:15:25;4.32;;;3.00;;
2756;SDS011;1386;50.862;6.494;2023-03-11T00:17:53;8.57;;;3.40;;
2756;SDS011;1386;50.862;6.494;2023-03-11T00:20:21;3.85;;;3.15;;
2756;SDS011;1386;50.862;6.494;2023-03-11T00:22:50;7.38;;;2.53;;
2756;SDS011;1386;50.862;6.494;2023-03-11T00:25:20;7.45;;;3.25;;
2756;SDS011;1386;50.862;6.494;2023-03-11T00:27:48;3.22;;;2.60;;
2756;SDS011;1386;50.862;6.494;2023-03-11T00:30:17;6.32;;;2.45;;
2756;SDS011;1386;50.862;6.494;2023-03-11T00:32:46;6.78;;;2.90;;
2756;SDS011;1386;50.862;6.494;2023-03-11T00:35:13;7.82;;;2.90;;
2756;SDS011;1386;50.862;6.494;2023-03-11T00:37:43;3.55;;;3.28;;
2756;SDS011;1386;50.862;6.494;2023-03-11T00:40:12;5.43;;;2.40;;
2756;SDS011;1386;50.862;6.494;2023-03-11T00:42:40;7.32;;;3.45;;
2756;SDS011;1386;50.862;6.494;2023-03-11T00:45:07;4.35;;;3.00;;
2756;SDS011;1386;50.862;6.494;2023-03-11T00:47:36;3.50;;;3.20;;
2756;SDS011;1386;50.862;6.494;2023-03-11T00:50:03;5.93;;;2.50;;
2756;SDS011;1386;50.862;6.494;2023-03-11T00:52:30;6.50;;;3.05;;
2756;SDS011;1386;50.862;6.494;2023-03-11T00:55:00;5.68;;;3.58;;
2756;SDS011;1386;50.862;6.494;2023-03-11T00:57:27;10.52;;;5.20;;
2756;SDS011;1386;50.862;6.494;2023-03-11T00:59:53;7.03;;;3.55;;
2756;SDS011;1386;50.862;6.494;2023-03-11T01:02:21;6.32;;;3.97;;
2756;SDS011;1386;50.862;6.494;2023-03-11T01:04:53;5.88;;;2.88;;
2756;SDS011;1386;50.862;6.494;2023-03-11T01:07:20;6.07;;;2.67;;
2756;SDS011;1386;50.862;6.494;2023-03-11T01:09:47;4.18;;;2.53;;
2756;SDS011;1386;50.862;6.494;2023-03-11T01:12:14;3.88;;;2.97;;
2756;SDS011;1386;50.862;6.494;2023-03-11T01:14:41;4.43;;;2.67;;
2756;SDS011;1386;50.862;6.494;2023-03-11T01:17:08;5.45;;;3.15;;
2756;SDS011;1386;50.862;6.494;2023-03-11T01:19:35;4.00;;;3.05;;
2756;SDS011;1386;50.862;6.494;2023-03-11T01:22:04;6.82;;;3.63;;
2756;SDS011;1386;50.862;6.494;2023-03-11T01:24:30;4.90;;;3.42;;
2756;SDS011;1386;50.862;6.494;2023-03-11T01:26:57;17.30;;;4.05;;
2756;SDS011;1386;50.862;6.494;2023-03-11T01:29:24;4.45;;;3.00;;
2756;SDS011;1386;50.862;6.494;2023-03-11T01:31:51;12.20;;;3.50;;
2756;SDS011;1386;50.862;6.494;2023-03-11T01:34:18;6.35;;;2.70;;
2756;SDS011;1386;50.862;6.494;2023-03-11T01:36:45;5.40;;;2.97;;
2756;SDS011;1386;50.862;6.494;2023-03-11T01:39:13;10.38;;;2.63;;
2756;SDS011;1386;50.862;6.494;2023-03-11T01:41:40;4.78;;;3.30;;
2756;SDS011;1386;50.862;6.494;2023-03-11T01:44:09;10.52;;;3.40;;
2756;SDS011;1386;50.862;6.494;2023-03-11T01:47:17;7.25;;;3.05;;
2756;SDS011;1386;50.862;6.494;2023-03-11T01:49:46;3.63;;;3.22;;
2756;SDS011;1386;50.862;6.494;2023-03-11T01:52:14;9.13;;;2.85;;
2756;SDS011;1386;50.862;6.494;2023-03-11T01:54:43;8.50;;;3.55;;
2756;SDS011;1386;50.862;6.494;2023-03-11T01:57:11;4.30;;;2.95;;
2756;SDS011;1386;50.862;6.494;2023-03-11T01:59:41;6.28;;;2.53;;
2756;SDS011;1386;50.862;6.494;2023-03-11T02:02:13;6.72;;;3.00;;
2756;SDS011;1386;50.862;6.494;2023-03-11T02:04:43;6.78;;;2.97;;
2756;SDS011;1386;50.862;6.494;2023-03-11T02:07:10;3.72;;;3.13;;
2756;SDS011;1386;50.862;6.494;2023-03-11T02:09:39;3.15;;;2.60;;
2756;SDS011;1386;50.862;6.494;2023-03-11T02:12:08;4.95;;;2.25;;
2756;SDS011;1386;50.862;6.494;2023-03-11T02:14:36;7.88;;;2.92;;
2756;SDS011;1386;50.862;6.494;2023-03-11T02:17:08;2.78;;;2.35;;
2756;SDS011;1386;50.862;6.494;2023-03-11T02:19:37;5.20;;;3.05;;
2756;SDS011;1386;50.862;6.494;2023-03-11T02:22:11;5.28;;;3.20;;
2756;SDS011;1386;50.862;6.494;2023-03-11T02:24:39;4.75;;;3.00;;
2756;SDS011;1386;50.862;6.494;2023-03-11T02:27:17;5.35;;;3.08;;
2756;SDS011;1386;50.862;6.494;2023-03-11T02:29:46;5.80;;;2.70;;
2756;SDS011;1386;50.862;6.494;2023-03-11T02:32:14;3.10;;;2.90;;
2756;SDS011;1386;50.862;6.494;2023-03-11T02:34:41;6.15;;;2.63;;
2756;SDS011;1386;50.862;6.494;2023-03-11T02:37:09;8.82;;;3.97;;
2756;SDS011;1386;50.862;6.494;2023-03-11T02:39:38;5.55;;;3.47;;
2756;SDS011;1386;50.862;6.494;2023-03-11T02:42:07;5.68;;;3.60;;
2756;SDS011;1386;50.862;6.494;2023-03-11T02:44:39;13.07;;;2.90;;
2756;SDS011;1386;50.862;6.494;2023-03-11T02:47:08;13.35;;;4.57;;
2756;SDS011;1386;50.862;6.494;2023-03-11T02:49:35;4.68;;;3.30;;
2756;SDS011;1386;50.862;6.494;2023-03-11T02:52:04;9.07;;;3.30;;
2756;SDS011;1386;50.862;6.494;2023-03-11T02:54:31;11.20;;;3.67;;
2756;SDS011;1386;50.862;6.494;2023-03-11T02:56:58;3.28;;;2.30;;
2756;SDS011;1386;50.862;6.494;2023-03-11T02:59:25;4.03;;;3.30;;
2756;SDS011;1386;50.862;6.494;2023-03-11T03:01:53;5.28;;;2.85;;
2756;SDS011;1386;50.862;6.494;2023-03-11T03:04:20;4.57;;;3.97;;
2756;SDS011;1386;50.862;6.494;2023-03-11T03:06:49;6.50;;;4.18;;
2756;SDS011;1386;50.862;6.494;2023-03-11T03:09:16;3.58;;;3.25;;
2756;SDS011;1386;50.862;6.494;2023-03-11T03:11:43;9.20;;;3.97;;
2756;SDS011;1386;50.862;6.494;2023-03-11T03:14:10;4.13;;;3.60;;
2756;SDS011;1386;50.862;6.494;2023-03-11T03:16:36;9.02;;;3.58;;
2756;SDS011;1386;50.862;6.494;2023-03-11T03:19:05;3.75;;;2.88;;
2756;SDS011;1386;50.862;6.494;2023-03-11T03:21:31;3.25;;;3.03;;
2756;SDS011;1386;50.862;6.494;2023-03-11T03:23:58;5.00;;;3.85;;
2756;SDS011;1386;50.862;6.494;2023-03-11T03:26:25;6.07;;;3.38;;
2756;SDS011;1386;50.862;6.494;2023-03-11T03:28:52;5.82;;;2.83;;
2756;SDS011;1386;50.862;6.494;2023-03-11T03:31:19;8.25;;;3.83;;
2756;SDS011;1386;50.862;6.494;2023-03-11T03:33:46;4.18;;;3.88;;
2756;SDS011;1386;50.862;6.494;2023-03-11T03:36:14;5.18;;;3.35;;
2756;SDS011;1386;50.862;6.494;2023-03-11T03:38:41;11.80;;;2.90;;
2756;SDS011;1386;50.862;6.494;2023-03-11T03:41:08;4.57;;;3.47;;
2756;SDS011;1386;50.862;6.494;2023-03-11T03:43:35;10.35;;;3.03;;
2756;SDS011;1386;50.862;6.494;2023-03-11T03:46:02;5.63;;;3.13;;
2756;SDS011;1386;50.862;6.494;2023-03-11T03:48:30;4.60;;;3.50;;
2756;SDS011;1386;50.862;6.494;2023-03-11T03:51:00;5.00;;;3.25;;
2756;SDS011;1386;50.862;6.494;2023-03-11T03:53:29;9.93;;;4.75;;
2756;SDS011;1386;50.862;6.494;2023-03-11T03:55:56;8.18;;;4.00;;
2756;SDS011;1386;50.862;6.494;2023-03-11T03:58:23;16.45;;;3.85;;
2756;SDS011;1386;50.862;6.494;2023-03-11T04:00:53;5.28;;;3.88;;
2756;SDS011;1386;50.862;6.494;2023-03-11T04:03:21;9.32;;;4.20;;
2756;SDS011;1386;50.862;6.494;2023-03-11T04:05:48;7.22;;;3.88;;
2756;SDS011;1386;50.862;6.494;2023-03-11T04:08:14;4.65;;;3.53;;
2756;SDS011;1386;50.862;6.494;2023-03-11T04:10:43;10.02;;;4.45;;
2756;SDS011;1386;50.862;6.494;2023-03-11T04:13:10;7.40;;;4.57;;
2756;SDS011;1386;50.862;6.494;2023-03-11T04:15:37;4.45;;;3.28;;
2756;SDS011;1386;50.862;6.494;2023-03-11T04:18:04;4.60;;;3.80;;
2756;SDS011;1386;50.862;6.494;2023-03-11T04:20:31;6.65;;;3.97;;
2756;SDS011;1386;50.862;6.494;2023-03-11T04:22:58;5.10;;;4.10;;
2756;SDS011;1386;50.862;6.494;2023-03-11T04:25:25;6.13;;;3.67;;
2756;SDS011;1386;50.862;6.494;2023-03-11T04:27:53;10.23;;;4.63;;
2756;SDS011;1386;50.862;6.494;2023-03-11T04:30:20;6.32;;;4.60;;
2756;SDS011;1386;50.862;6.494;2023-03-11T04:32:47;10.25;;;4.93;;
2756;SDS011;1386;50.862;6.494;2023-03-11T04:35:13;10.43;;;4.65;;
2756;SDS011;1386;50.862;6.494;2023-03-11T04:37:40;12.23;;;4.88;;
2756;SDS011;1386;50.862;6.494;2023-03-11T04:40:08;7.35;;;4.25;;
2756;SDS011;1386;50.862;6.494;2023-03-11T04:42:36;9.45;;;4.80;;
2756;SDS011;1386;50.862;6.494;2023-03-11T04:45:05;4.35;;;3.95;;
2756;SDS011;1386;50.862;6.494;2023-03-11T04:47:32;12.23;;;4.25;;
2756;SDS011;1386;50.862;6.494;2023-03-11T04:49:59;10.70;;;4.57;;
2756;SDS011;1386;50.862;6.494;2023-03-11T04:52:26;9.15;;;3.22;;
2756;SDS011;1386;50.862;6.494;2023-03-11T04:54:53;9.68;;;5.30;;
2756;SDS011;1386;50.862;6.494;2023-03-11T04:57:20;5.35;;;4.00;;
2756;SDS011;1386;50.862;6.494;2023-03-11T04:59:47;8.68;;;3.80;;
2756;SDS011;1386;50.862;6.494;2023-03-11T05:02:15;6.57;;;3.85;;
2756;SDS011;1386;50.862;6.494;2023-03-11T05:04:42;5.82;;;3.97;;
2756;SDS011;1386;50.862;6.494;2023-03-11T05:07:09;9.95;;;4.07;;
2756;SDS011;1386;50.862;6.494;2023-03-11T05:09:36;5.22;;;4.50;;
2756;SDS011;1386;50.862;6.494;2023-03-11T05:12:03;4.72;;;4.22;;
2756;SDS011;1386;50.862;6.494;2023-03-11T05:14:30;7.07;;;4.05;;
2756;SDS011;1386;50.862;6.494;2023-03-11T05:16:57;4.95;;;3.88;;
2756;SDS011;1386;50.862;6.494;2023-03-11T05:19:25;4.97;;;4.43;;
2756;SDS011;1386;50.862;6.494;2023-03-11T05:21:59;7.93;;;4.75;;
2756;SDS011;1386;50.862;6.494;2023-03-11T05:24:26;4.57;;;3.97;;
2756;SDS011;1386;50.862;6.494;2023-03-11T05:26:53;5.00;;;3.28;;
2756;SDS011;1386;50.862;6.494;2023-03-11T05:29:22;4.82;;;3.45;;
2756;SDS011;1386;50.862;6.494;2023-03-11T05:31:49;5.95;;;3.60;;
2756;SDS011;1386;50.862;6.494;2023-03-11T05:34:16;10.40;;;3.60;;
2756;SDS011;1386;50.862;6.494;2023-03-11T05:36:44;7.45;;;4.40;;
2756;SDS011;1386;50.862;6.494;2023-03-11T05:39:11;6.78;;;3.83;;
2756;SDS011;1386;50.862;6.494;2023-03-11T05:41:39;4.53;;;4.10;;
2756;SDS011;1386;50.862;6.494;2023-03-11T05:44:06;10.25;;;4.55;;
2756;SDS011;1386;50.862;6.494;2023-03-11T05:46:33;10.65;;;4.47;;
2756;SDS011;1386;50.862;6.494;2023-03-11T05:48:59;5.75;;;3.95;;
2756;SDS011;1386;50.862;6.494;2023-03-11T05:51:26;6.78;;;6.07;;
2756;SDS011;1386;50.862;6.494;2023-03-11T05:53:54;5.28;;;4.78;;
2756;SDS011;1386;50.862;6.494;2023-03-11T05:56:22;14.38;;;6.78;;
2756;SDS011;1386;50.862;6.494;2023-03-11T05:58:49;6.68;;;4.03;;
2756;SDS011;1386;50.862;6.494;2023-03-11T06:01:17;7.78;;;5.50;;
2756;SDS011;1386;50.862;6.494;2023-03-11T06:03:44;10.55;;;5.65;;
2756;SDS011;1386;50.862;6.494;2023-03-11T06:06:12;11.20;;;6.97;;
2756;SDS011;1386;50.862;6.494;2023-03-11T06:08:39;10.50;;;7.38;;
2756;SDS011;1386;50.862;6.494;2023-03-11T06:11:11;13.23;;;5.80;;
2756;SDS011;1386;50.862;6.494;2023-03-11T06:13:38;6.72;;;5.82;;
2756;SDS011;1386;50.862;6.494;2023-03-11T06:16:05;7.45;;;5.40;;
2756;SDS011;1386;50.862;6.494;2023-03-11T06:18:32;6.05;;;4.72;;
2756;SDS011;1386;50.862;6.494;2023-03-11T06:21:00;6.97;;;4.55;;
2756;SDS011;1386;50.862;6.494;2023-03-11T06:23:28;4.60;;;4.20;;
2756;SDS011;1386;50.862;6.494;2023-03-11T06:25:56;8.55;;;5.97;;
2756;SDS011;1386;50.862;6.494;2023-03-11T06:28:24;8.77;;;5.22;;
2756;SDS011;1386;50.862;6.494;2023-03-11T06:30:52;6.10;;;4.90;;
2756;SDS011;1386;50.862;6.494;2023-03-11T06:33:20;16.15;;;5.00;;
2756;SDS011;1386;50.862;6.494;2023-03-11T06:35:54;7.05;;;5.32;;
2756;SDS011;1386;50.862;6.494;2023-03-11T06:38:22;8.02;;;4.65;;
2756;SDS011;1386;50.862;6.494;2023-03-11T06:40:49;8.30;;;6.47;;
2756;SDS011;1386;50.862;6.494;2023-03-11T06:43:17;11.93;;;5.82;;
2756;SDS011;1386;50.862;6.494;2023-03-11T06:45:46;10.02;;;5.85;;
2756;SDS011;1386;50.862;6.494;2023-03-11T06:48:13;10.45;;;5.68;;
2756;SDS011;1386;50.862;6.494;2023-03-11T06:50:40;10.82;;;7.35;;
2756;SDS011;1386;50.862;6.494;2023-03-11T06:53:07;16.05;;;6.85;;
2756;SDS011;1386;50.862;6.494;2023-03-11T06:55:34;12.65;;;8.48;;
2756;SDS011;1386;50.862;6.494;2023-03-11T06:58:01;6.55;;;5.85;;
2756;SDS011;1386;50.862;6.494;2023-03-11T07:00:28;8.77;;;6.97;;
2756;SDS011;1386;50.862;6.494;2023-03-11T07:02:56;13.43;;;6.55;;
2756;SDS011;1386;50.862;6.494;2023-03-11T07:05:23;8.32;;;6.60;;
2756;SDS011;1386;50.862;6.494;2023-03-11T07:07:53;11.63;;;6.47;;
2756;SDS011;1386;50.862;6.494;2023-03-11T07:10:20;12.88;;;6.53;;
2756;SDS011;1386;50.862;6.494;2023-03-11T07:12:50;7.07;;;5.78;;
2756;SDS011;1386;50.862;6.494;2023-03-11T07:15:17;6.63;;;6.00;;
2756;SDS011;1386;50.862;6.494;2023-03-11T07:17:44;6.85;;;6.07;;
2756;SDS011;1386;50.862;6.494;2023-03-11T07:20:12;7.22;;;6.40;;
2756;SDS011;1386;50.862;6.494;2023-03-11T07:22:39;9.35;;;5.30;;
2756;SDS011;1386;50.862;6.494;2023-03-11T07:25:06;8.85;;;5.95;;
2756;SDS011;1386;50.862;6.494;2023-03-11T07:27:33;6.28;;;5.05;;
2756;SDS011;1386;50.862;6.494;2023-03-11T07:30:03;8.38;;;5.88;;
2756;SDS011;1386;50.862;6.494;2023-03-11T07:32:30;7.80;;;5.07;;
2756;SDS011;1386;50.862;6.494;2023-03-11T07:34:57;12.05;;;6.25;;
2756;SDS011;1386;50.862;6.494;2023-03-11T07:37:25;9.38;;;6.13;;
2756;SDS011;1386;50.862;6.494;2023-03-11T07:39:52;6.78;;;5.38;;
2756;SDS011;1386;50.862;6.494;2023-03-11T07:42:19;7.25;;;5.85;;
2756;SDS011;1386;50.862;6.494;2023-03-11T07:44:46;9.10;;;6.05;;
2756;SDS011;1386;50.862;6.494;2023-03-11T07:47:15;8.10;;;6.05;;
2756;SDS011;1386;50.862;6.494;2023-03-11T07:49:42;8.25;;;5.88;;
2756;SDS011;1386;50.862;6.494;2023-03-11T07:52:09;11.27;;;7.07;;
2756;SDS011;1386;50.862;6.494;2023-03-11T07:54:37;10.48;;;5.38;;
2756;SDS011;1386;50.862;6.494;2023-03-11T07:57:04;11.75;;;5.10;;
2756;SDS011;1386;50.862;6.494;2023-03-11T07:59:32;10.88;;;5.15;;
2756;SDS011;1386;50.862;6.494;2023-03-11T08:01:59;6.93;;;4.70;;
2756;SDS011;1386;50.862;6.494;2023-03-11T08:04:28;8.95;;;5.35;;
2756;SDS011;1386;50.862;6.494;2023-03-11T08:06:57;6.80;;;5.03;;
2756;SDS011;1386;50.862;6.494;2023-03-11T08:09:24;11.48;;;5.10;;
2756;SDS011;1386;50.862;6.494;2023-03-11T08:11:52;6.85;;;4.93;;
2756;SDS011;1386;50.862;6.494;2023-03-11T08:14:22;11.10;;;5.07;;
2756;SDS011;1386;50.862;6.494;2023-03-11T08:16:49;10.53;;;5.30;;
2756;SDS011;1386;50.862;6.494;2023-03-11T08:19:16;5.65;;;4.78;;
2756;SDS011;1386;50.862;6.494;2023-03-11T08:21:43;9.60;;;4.83;;
2756;SDS011;1386;50.862;6.494;2023-03-11T08:24:10;6.00;;;3.70;;
2756;SDS011;1386;50.862;6.494;2023-03-11T08:26:38;8.87;;;4.47;;
2756;SDS011;1386;50.862;6.494;2023-03-11T08:29:06;11.40;;;4.33;;
2756;SDS011;1386;50.862;6.494;2023-03-11T08:31:34;6.00;;;4.23;;
2756;SDS011;1386;50.862;6.494;2023-03-11T08:34:01;5.67;;;3.97;;
2756;SDS011;1386;50.862;6.494;2023-03-11T08:36:30;6.20;;;4.43;;
2756;SDS011;1386;50.862;6.494;2023-03-11T08:38:57;5.07;;;4.13;;
2756;SDS011;1386;50.862;6.494;2023-03-11T08:41:24;6.00;;;3.47;;
2756;SDS011;1386;50.862;6.494;2023-03-11T08:43:52;6.53;;;4.43;;
2756;SDS011;1386;50.862;6.494;2023-03-11T08:46:21;5.27;;;3.73;;
2756;SDS011;1386;50.862;6.494;2023-03-11T08:48:50;5.83;;;4.33;;
2756;SDS011;1386;50.862;6.494;2023-03-11T08:51:17;9.20;;;4.20;;
2756;SDS011;1386;50.862;6.494;2023-03-11T08:53:44;5.77;;;3.90;;
2756;SDS011;1386;50.862;6.494;2023-03-11T08:56:11;13.30;;;4.03;;
2756;SDS011;1386;50.862;6.494;2023-03-11T08:58:38;7.20;;;4.40;;
2756;SDS011;1386;50.862;6.494;2023-03-11T09:01:05;6.77;;;4.10;;
2756;SDS011;1386;50.862;6.494;2023-03-11T09:03:35;5.67;;;3.80;;
2756;SDS011;1386;50.862;6.494;2023-03-11T09:06:09;10.60;;;3.67;;
2756;SDS011;1386;50.862;6.494;2023-03-11T09:08:39;6.40;;;3.93;;
2756;SDS011;1386;50.862;6.494;2023-03-11T09:11:06;4.77;;;3.50;;
2756;SDS011;1386;50.862;6.494;2023-03-11T09:13:33;7.83;;;3.20;;
2756;SDS011;1386;50.862;6.494;2023-03-11T09:16:00;6.80;;;3.40;;
2756;SDS011;1386;50.862;6.494;2023-03-11T09:18:29;4.53;;;3.53;;
2756;SDS011;1386;50.862;6.494;2023-03-11T09:20:58;4.03;;;2.70;;
2756;SDS011;1386;50.862;6.494;2023-03-11T09:23:25;3.93;;;3.10;;
2756;SDS011;1386;50.862;6.494;2023-03-11T09:25:52;6.80;;;2.40;;
2756;SDS011;1386;50.862;6.494;2023-03-11T09:28:19;5.07;;;3.33;;
2756;SDS011;1386;50.862;6.494;2023-03-11T09:30:46;7.77;;;3.33;;
2756;SDS011;1386;50.862;6.494;2023-03-11T09:33:15;8.70;;;3.20;;
2756;SDS011;1386;50.862;6.494;2023-03-11T09:35:42;8.00;;;3.30;;
2756;SDS011;1386;50.862;6.494;2023-03-11T09:38:10;8.10;;;3.00;;
2756;SDS011;1386;50.862;6.494;2023-03-11T09:40:41;5.33;;;3.03;;
2756;SDS011;1386;50.862;6.494;2023-03-11T09:43:19;4.33;;;2.70;;
2756;SDS011;1386;50.862;6.494;2023-03-11T09:46:00;7.40;;;3.20;;
2756;SDS011;1386;50.862;6.494;2023-03-11T09:48:35;7.17;;;2.60;;
2756;SDS011;1386;50.862;6.494;2023-03-11T09:51:07;3.23;;;2.03;;
2756;SDS011;1386;50.862;6.494;2023-03-11T09:53:40;7.70;;;2.17;;
2756;SDS011;1386;50.862;6.494;2023-03-11T09:56:08;4.23;;;2.10;;
2756;SDS011;1386;50.862;6.494;2023-03-11T09:58:38;5.50;;;2.87;;
2756;SDS011;1386;50.862;6.494;2023-03-11T10:01:11;3.40;;;2.10;;
2756;SDS011;1386;50.862;6.494;2023-03-11T10:03:42;3.97;;;2.40;;
2756;SDS011;1386;50.862;6.494;2023-03-11T10:06:12;2.67;;;1.97;;
2756;SDS011;1386;50.862;6.494;2023-03-11T10:08:43;7.10;;;2.87;;
2756;SDS011;1386;50.862;6.494;2023-03-11T10:11:38;5.90;;;2.93;;
2756;SDS011;1386;50.862;6.494;2023-03-11T10:14:16;3.43;;;2.20;;
2756;SDS011;1386;50.862;6.494;2023-03-11T10:16:54;3.63;;;1.93;;
2756;SDS011;1386;50.862;6.494;2023-03-11T10:19:29;2.40;;;1.83;;
2756;SDS011;1386;50.862;6.494;2023-03-11T10:22:08;3.70;;;2.10;;
2756;SDS011;1386;50.862;6.494;2023-03-11T10:24:49;3.27;;;1.53;;
2756;SDS011;1386;50.862;6.494;2023-03-11T10:27:27;4.73;;;1.70;;
2756;SDS011;1386;50.862;6.494;2023-03-11T10:29:59;4.00;;;1.80;;
2756;SDS011;1386;50.862;6.494;2023-03-11T10:32:33;3.43;;;1.90;;
2756;SDS011;1386;50.862;6.494;2023-03-11T10:35:09;1.63;;;1.53;;
2756;SDS011;1386;50.862;6.494;2023-03-11T10:37:41;2.10;;;2.00;;
2756;SDS011;1386;50.862;6.494;2023-03-11T10:40:17;4.00;;;1.50;;
2756;SDS011;1386;50.862;6.494;2023-03-11T10:42:48;2.83;;;1.60;;
2756;SDS011;1386;50.862;6.494;2023-03-11T10:45:17;3.93;;;1.70;;
2756;SDS011;1386;50.862;6.494;2023-03-11T10:47:45;3.73;;;1.80;;
2756;SDS011;1386;50.862;6.494;2023-03-11T10:50:12;1.67;;;1.40;;
2756;SDS011;1386;50.862;6.494;2023-03-11T10:52:42;3.40;;;1.70;;
2756;SDS011;1386;50.862;6.494;2023-03-11T10:55:28;6.10;;;1.93;;
2756;SDS011;1386;50.862;6.494;2023-03-11T10:58:00;3.00;;;1.50;;
2756;SDS011;1386;50.862;6.494;2023-03-11T11:00:31;2.00;;;1.60;;
2756;SDS011;1386;50.862;6.494;2023-03-11T11:02:58;6.40;;;1.83;;
2756;SDS011;1386;50.862;6.494;2023-03-11T11:05:28;6.70;;;2.23;;
2756;SDS011;1386;50.862;6.494;2023-03-11T11:08:03;2.57;;;1.60;;
2756;SDS011;1386;50.862;6.494;2023-03-11T11:10:34;4.20;;;1.93;;
2756;SDS011;1386;50.862;6.494;2023-03-11T11:13:04;2.90;;;1.57;;
2756;SDS011;1386;50.862;6.494;2023-03-11T11:15:50;4.43;;;1.47;;
2756;SDS011;1386;50.862;6.494;2023-03-11T11:18:20;2.13;;;1.90;;
2756;SDS011;1386;50.862;6.494;2023-03-11T11:20:56;3.60;;;1.60;;
2756;SDS011;1386;50.862;6.494;2023-03-11T11:23:34;3.17;;;1.50;;
2756;SDS011;1386;50.862;6.494;2023-03-11T11:26:06;1.70;;;1.60;;
2756;SDS011;1386;50.862;6.494;2023-03-11T11:28:40;1.70;;;1.50;;
2756;SDS011;1386;50.862;6.494;2023-03-11T11:31:18;2.70;;;1.50;;
2756;SDS011;1386;50.862;6.494;2023-03-11T11:33:48;3.70;;;1.50;;
2756;SDS011;1386;50.862;6.494;2023-03-11T11:36:17;4.50;;;1.90;;
2756;SDS011;1386;50.862;6.494;2023-03-11T11:38:45;2.93;;;1.40;;
2756;SDS011;1386;50.862;6.494;2023-03-11T11:41:15;1.80;;;1.67;;
2756;SDS011;1386;50.862;6.494;2023-03-11T11:43:45;2.23;;;1.47;;
2756;SDS011;1386;50.862;6.494;2023-03-11T11:46:19;2.73;;;1.37;;
2756;SDS011;1386;50.862;6.494;2023-03-11T11:48:52;2.97;;;2.20;;
2756;SDS011;1386;50.862;6.494;2023-03-11T11:51:27;2.87;;;1.50;;
2756;SDS011;1386;50.862;6.494;2023-03-11T11:53:58;3.30;;;2.00;;
2756;SDS011;1386;50.862;6.494;2023-03-11T11:56:30;4.27;;;2.00;;
2756;SDS011;1386;50.862;6.494;2023-03-11T11:58:57;3.20;;;2.17;;
2756;SDS011;1386;50.862;6.494;2023-03-11T12:01:28;3.17;;;1.70;;
2756;SDS011;1386;50.862;6.494;2023-03-11T12:04:20;2.63;;;1.90;;
2756;SDS011;1386;50.862;6.494;2023-03-11T12:07:14;4.97;;;1.70;;
2756;SDS011;1386;50.862;6.494;2023-03-11T12:09:51;3.47;;;1.60;;
2756;SDS011;1386;50.862;6.494;2023-03-11T12:12:26;4.03;;;1.60;;
2756;SDS011;1386;50.862;6.494;2023-03-11T12:15:00;3.33;;;1.80;;
2756;SDS011;1386;50.862;6.494;2023-03-11T12:17:34;4.53;;;1.60;;
2756;SDS011;1386;50.862;6.494;2023-03-11T12:20:07;3.37;;;1.87;;
2756;SDS011;1386;50.862;6.494;2023-03-11T12:25:44;2.20;;;1.60;;
2756;SDS011;1386;50.862;6.494;2023-03-11T12:28:36;5.00;;;1.60;;
2756;SDS011;1386;50.862;6.494;2023-03-11T12:31:08;1.70;;;1.60;;
2756;SDS011;1386;50.862;6.494;2023-03-11T12:33:39;5.93;;;1.70;;
2756;SDS011;1386;50.862;6.494;2023-03-11T12:36:18;3.63;;;1.83;;
2756;SDS011;1386;50.862;6.494;2023-03-11T12:38:48;6.50;;;1.90;;
2756;SDS011;1386;50.862;6.494;2023-03-11T12:41:27;3.63;;;2.30;;
2756;SDS011;1386;50.862;6.494;2023-03-11T12:44:11;2.20;;;1.73;;
2756;SDS011;1386;50.862;6.494;2023-03-11T12:47:10;2.57;;;2.30;;
2756;SDS011;1386;50.862;6.494;2023-03-11T12:49:49;7.33;;;1.97;;
2756;SDS011;1386;50.862;6.494;2023-03-11T12:52:28;2.87;;;1.57;;
2756;SDS011;1386;50.862;6.494;2023-03-11T12:57:57;3.13;;;1.67;;
2756;SDS011;1386;50.862;6.494;2023-03-11T13:00:58;1.97;;;1.67;;
2756;SDS011;1386;50.862;6.494;2023-03-11T13:06:44;2.63;;;1.40;;
2756;SDS011;1386;50.862;6.494;2023-03-11T13:09:37;2.50;;;1.87;;
2756;SDS011;1386;50.862;6.494;2023-03-11T13:18:16;5.33;;;1.90;;
2756;SDS011;1386;50.862;6.494;2023-03-11T13:20:48;2.90;;;1.67;;
2756;SDS011;1386;50.862;6.494;2023-03-11T13:23:28;2.10;;;1.40;;
2756;SDS011;1386;50.862;6.494;2023-03-11T13:31:52;1.73;;;1.40;;
2756;SDS011;1386;50.862;6.494;2023-03-11T13:34:49;3.80;;;1.50;;
2756;SDS011;1386;50.862;6.494;2023-03-11T13:37:26;6.60;;;1.90;;
2756;SDS011;1386;50.862;6.494;2023-03-11T13:40:03;4.20;;;2.10;;
2756;SDS011;1386;50.862;6.494;2023-03-11T13:46:03;4.00;;;2.47;;
2756;SDS011;1386;50.862;6.494;2023-03-11T13:48:59;2.63;;;1.90;;
2756;SDS011;1386;50.862;6.494;2023-03-11T13:51:34;1.60;;;1.50;;
2756;SDS011;1386;50.862;6.494;2023-03-11T13:54:07;2.13;;;1.60;;
2756;SDS011;1386;50.862;6.494;2023-03-11T13:56:49;6.00;;;1.97;;
2756;SDS011;1386;50.862;6.494;2023-03-11T13:59:22;3.10;;;2.20;;
2756;SDS011;1386;50.862;6.494;2023-03-11T14:01:50;4.10;;;2.30;;
2756;SDS011;1386;50.862;6.494;2023-03-11T14:04:19;2.37;;;1.73;;
2756;SDS011;1386;50.862;6.494;2023-03-11T14:13:49;2.40;;;1.57;;
2756;SDS011;1386;50.862;6.494;2023-03-11T14:16:17;3.50;;;2.33;;
2756;SDS011;1386;50.862;6.494;2023-03-11T14:18:47;2.30;;;1.70;;
2756;SDS011;1386;50.862;6.494;2023-03-11T14:21:26;2.60;;;1.73;;
2756;SDS011;1386;50.862;6.494;2023-03-11T14:23:54;2.37;;;1.67;;
2756;SDS011;1386;50.862;6.494;2023-03-11T14:26:22;3.03;;;2.10;;
2756;SDS011;1386;50.862;6.494;2023-03-11T14:31:38;2.40;;;1.63;;
2756;SDS011;1386;50.862;6.494;2023-03-11T14:34:12;2.27;;;1.60;;
2756;SDS011;1386;50.862;6.494;2023-03-11T14:36:40;1.70;;;1.50;;
2756;SDS011;1386;50.862;6.494;2023-03-11T14:39:24;3.10;;;2.00;;
2756;SDS011;1386;50.862;6.494;2023-03-11T14:41:54;1.90;;;1.53;;
2756;SDS011;1386;50.862;6.494;2023-03-11T14:44:25;4.97;;;1.90;;
2756;SDS011;1386;50.862;6.494;2023-03-11T17:15:22;6.03;;;1.93;;
2756;SDS011;1386;50.862;6.494;2023-03-11T17:18:34;5.17;;;1.90;;
2756;SDS011;1386;50.862;6.494;2023-03-11T17:24:12;5.60;;;2.70;;
2756;SDS011;1386;50.862;6.494;2023-03-11T17:26:43;3.83;;;1.83;;
2756;SDS011;1386;50.862;6.494;2023-03-11T17:29:16;6.23;;;2.70;;
2756;SDS011;1386;50.862;6.494;2023-03-11T17:32:08;6.00;;;2.47;;
2756;SDS011;1386;50.862;6.494;2023-03-11T17:38:01;7.93;;;3.30;;
2756;SDS011;1386;50.862;6.494;2023-03-11T17:40:55;6.57;;;3.77;;
2756;SDS011;1386;50.862;6.494;2023-03-11T17:43:52;4.17;;;2.33;;
2756;SDS011;1386;50.862;6.494;2023-03-11T17:46:20;6.00;;;3.13;;
2756;SDS011;1386;50.862;6.494;2023-03-11T17:48:56;6.63;;;2.50;;
2756;SDS011;1386;50.862;6.494;2023-03-11T17:51:26;6.53;;;3.40;;
2756;SDS011;1386;50.862;6.494;2023-03-11T17:53:54;4.30;;;2.23;;
2756;SDS011;1386;50.862;6.494;2023-03-11T17:56:23;5.13;;;2.13;;
2756;SDS011;1386;50.862;6.494;2023-03-11T17:58:53;8.13;;;1.97;;
2756;SDS011;1386;50.862;6.494;2023-03-11T18:01:20;3.33;;;2.10;;
2756;SDS011;1386;50.862;6.494;2023-03-11T18:03:50;4.67;;;2.47;;
2756;SDS011;1386;50.862;6.494;2023-03-11T18:06:17;3.23;;;2.23;;
2756;SDS011;1386;50.862;6.494;2023-03-11T18:18:45;3.00;;;2.37;;
2756;SDS011;1386;50.862;6.494;2023-03-11T18:21:25;4.23;;;2.43;;
2756;SDS011;1386;50.862;6.494;2023-03-11T18:24:20;4.10;;;2.57;;
2756;SDS011;1386;50.862;6.494;2023-03-11T18:27:07;7.00;;;3.27;;
2756;SDS011;1386;50.862;6.494;2023-03-11T18:43:25;4.80;;;4.30;;
2756;SDS011;1386;50.862;6.494;2023-03-11T21:08:09;13.07;;;8.23;;
2756;SDS011;1386;50.862;6.494;2023-03-11T21:14:22;10.40;;;8.52;;
2756;SDS011;1386;50.862;6.494;2023-03-11T21:17:15;9.48;;;8.10;;
2756;SDS011;1386;50.862;6.494;2023-03-11T21:33:53;11.20;;;8.32;;
2756;SDS011;1386;50.862;6.494;2023-03-11T21:36:40;9.95;;;8.10;;
2756;SDS011;1386;50.862;6.494;2023-03-11T21:39:06;10.87;;;8.23;;
2756;SDS011;1386;50.862;6.494;2023-03-11T21:41:33;8.77;;;6.73;;
2756;SDS011;1386;50.862;6.494;2023-03-11T21:44:00;6.23;;;5.60;;
2756;SDS011;1386;50.862;6.494;2023-03-11T21:46:29;6.13;;;5.53;;